Ana Sayfa
METAR-TAF:

METAR-TAF

Havaalanları :

Suceava, Romanya

Enlem: 47-39N, Boylam: 026-15E, yükseklik: 351 m

Güncel hava durumu gözlemi

Rapor saat 12:30 UTC de 29 dakika önce yapıldı.
Rüzgar doğu/güneydoğudan 6 kt, doğu/kuzeydoğu ve güney/güneydoğu arasında değişken
Sıcaklık 27°C
Nem 51%
Basınç 1017 hPa
Görüş mesafesi 10 km veya daha fazla
3500 ft yükseklikte az bulutlu

METAR: LRSV 201230Z 11006KT 070V160 9999 FEW035 27/16 Q1017

Saat: 15:59 (12:59 UTC)

Tahmin

Rapor saat 11:00 UTC de 1 saat ve 59 dakika önce yapıldı.
Ayın 20'si saat 12 UTC'den ayın 20'si saat 21 UTC'ye kadar geçerli Tahmin
Rüzgar değişken yönden 4 kt
Görüş mesafesi 10 km veya daha fazla
4000 ft yükseklikte parçalı bulutlu
Geçici
ayın 20'si saat 13 UTC'den ayın 20'si saat 16 UTC'ye kadar
3500 ft yükseklikte parçalı bulutlu, Kümülonimbus.

TAF: LRSV 201100Z 2012/2021 VRB04KT 9999 SCT040 TEMPO 2013/2016 SCT035CB

4.000'den fazla havaalanı için hava durumu gözlemleri ve tahminleri (METAR ve TAF raporları).

Kullanılabilir istasyonlar harita üzerinde sarı ve kırmızı noktalarla gösterilir.

İstasyonun adını görmek için fareyi noktanın üzerinde gezdirin.

Sonrasında hava gözlem ve tahminlerini görmek için tıklayın.

Haritayı değiştirmek için: yaklaştırmak için siyah artı işaretli yeşil düğmeye ve uzaklaştırmak için de eksi işaretli düğmeye hızla tıklayın; bitişik haritalar için yeşil okları kullanın.


METAR-TAF: